Time;durP1;ratioP1;P1;durP2;ratioP2;P2;SDS_P1;SDS_P2;PMS_P1;PMS_P2;Temp;Humidity;BMP_temperature;BMP_pressure;BME280_temperature;BME280_humidity;BME280_pressure;Samples;Min_cycle;Max_cycle;Signal;HPM_P1;HPM_P2
2022/08/26 00:00:29;;;;;;;0.30;0.30;;;20.70;99.90;;;;;;5072937;28;20836;-81
2022/08/26 00:02:57;;;;;;;0.35;0.30;;;20.70;99.90;;;;;;5073227;28;20063;-80
2022/08/26 00:05:23;;;;;;;0.30;0.30;;;20.70;99.90;;;;;;5071010;28;20059;-81
2022/08/26 00:07:49;;;;;;;0.30;0.30;;;20.60;99.90;;;;;;5070790;28;20055;-81
2022/08/26 00:10:16;;;;;;;0.30;0.30;;;20.40;99.90;;;;;;5084204;28;20508;-81
2022/08/26 00:12:42;;;;;;;0.30;0.30;;;20.40;99.90;;;;;;5091338;28;20052;-81
2022/08/26 00:15:17;;;;;;;0.30;0.30;;;20.30;99.90;;;;;;5090320;28;20249;-80
2022/08/26 00:17:44;;;;;;;0.43;0.43;;;20.10;99.90;;;;;;5065660;28;20039;-80
2022/08/26 00:20:12;;;;;;;0.30;0.30;;;20.10;99.90;;;;;;5073306;28;20724;-81
2022/08/26 00:22:38;;;;;;;0.30;0.30;;;20.20;99.90;;;;;;5073639;28;20078;-81
2022/08/26 00:25:06;;;;;;;0.30;0.30;;;19.90;99.90;;;;;;5073899;28;20047;-81
2022/08/26 00:27:32;;;;;;;0.30;0.30;;;20.00;99.90;;;;;;5074615;28;20130;-81
2022/08/26 00:30:05;;;;;;;0.35;0.35;;;19.90;99.90;;;;;;5090925;28;20118;-81
2022/08/26 00:32:31;;;;;;;0.30;0.30;;;19.70;99.90;;;;;;5073416;28;20055;-80
2022/08/26 00:34:56;;;;;;;0.30;0.30;;;19.80;99.90;;;;;;5074488;28;20039;-81
2022/08/26 00:37:22;;;;;;;0.30;0.30;;;19.80;99.90;;;;;;5090625;28;20043;-81
2022/08/26 00:39:48;;;;;;;0.32;0.32;;;19.70;99.90;;;;;;5074337;28;20082;-81
2022/08/26 00:42:13;;;;;;;0.30;0.30;;;19.80;99.90;;;;;;5073497;28;20096;-80
2022/08/26 00:44:39;;;;;;;0.30;0.30;;;19.80;99.90;;;;;;5090284;28;20047;-80
2022/08/26 00:47:13;;;;;;;0.30;0.30;;;19.80;99.90;;;;;;5054528;28;20122;-80
2022/08/26 00:49:42;;;;;;;0.60;0.35;;;19.80;99.90;;;;;;5086421;28;20063;-81
2022/08/26 00:52:14;;;;;;;0.40;0.40;;;19.70;99.90;;;;;;5091887;28;20048;-80
2022/08/26 00:54:45;;;;;;;0.30;0.30;;;19.80;99.90;;;;;;5091046;28;20066;-80
2022/08/26 00:57:15;;;;;;;0.50;0.50;;;19.80;99.90;;;;;;5072049;28;20058;-80
2022/08/26 00:59:41;;;;;;;0.30;0.30;;;19.80;99.90;;;;;;5071197;28;20056;-80
2022/08/26 01:02:07;;;;;;;0.30;0.30;;;19.80;99.90;;;;;;5069262;28;20565;-80
2022/08/26 01:04:36;;;;;;;0.40;0.40;;;19.70;99.90;;;;;;5072616;28;20050;-81
2022/08/26 01:07:03;;;;;;;0.30;0.30;;;19.70;99.90;;;;;;5072063;28;20394;-80
2022/08/26 01:09:30;;;;;;;0.40;0.40;;;19.80;99.90;;;;;;5071274;28;20071;-80
2022/08/26 01:11:59;;;;;;;0.60;0.40;;;19.70;99.90;;;;;;5071252;28;20048;-80
2022/08/26 01:14:28;;;;;;;0.30;0.30;;;19.70;99.90;;;;;;5070808;28;20468;-80
2022/08/26 01:16:54;;;;;;;0.30;0.30;;;19.60;99.90;;;;;;5089063;28;20048;-80
2022/08/26 01:19:29;;;;;;;0.40;0.40;;;19.60;99.90;;;;;;5071256;28;20068;-80
2022/08/26 01:22:04;;;;;;;0.30;0.30;;;19.60;99.90;;;;;;5090925;28;20048;-79
2022/08/26 01:24:30;;;;;;;0.30;0.30;;;19.60;99.90;;;;;;5071726;28;20055;-80
2022/08/26 01:27:03;;;;;;;0.30;0.30;;;19.60;99.90;;;;;;5073022;28;20569;-80
2022/08/26 01:29:32;;;;;;;0.30;0.30;;;19.60;99.90;;;;;;5071662;28;20069;-80
2022/08/26 01:31:58;;;;;;;0.30;0.30;;;19.50;99.90;;;;;;5088660;28;20137;-80
2022/08/26 01:34:29;;;;;;;0.30;0.30;;;19.50;99.90;;;;;;5070425;28;20396;-79
2022/08/26 01:37:20;;;;;;;0.30;0.30;;;19.50;99.90;;;;;;5070646;28;20122;-80
2022/08/26 01:39:50;;;;;;;0.40;0.40;;;19.50;99.90;;;;;;5072818;28;20146;-80
2022/08/26 01:42:18;;;;;;;0.30;0.30;;;19.50;99.90;;;;;;5087622;28;20073;-80
2022/08/26 01:44:55;;;;;;;0.30;0.30;;;19.50;99.90;;;;;;5072316;28;20055;-80
2022/08/26 01:47:24;;;;;;;0.30;0.30;;;19.50;99.90;;;;;;5071961;28;20075;-80
2022/08/26 01:49:53;;;;;;;0.40;0.40;;;19.40;99.90;;;;;;5070771;28;20105;-80
2022/08/26 01:52:23;;;;;;;0.40;0.40;;;19.40;99.90;;;;;;5054535;28;20306;-80
2022/08/26 01:54:50;;;;;;;0.30;0.30;;;19.40;99.90;;;;;;5041553;28;20138;-80
2022/08/26 01:57:17;;;;;;;0.30;0.30;;;19.40;99.90;;;;;;5090140;28;20514;-80
2022/08/26 01:59:43;;;;;;;0.30;0.30;;;19.40;99.90;;;;;;5074051;28;20085;-80
2022/08/26 02:02:09;;;;;;;0.30;0.30;;;19.40;99.90;;;;;;5071401;28;20130;-80
2022/08/26 02:05:05;;;;;;;0.30;0.30;;;19.40;99.90;;;;;;5091513;28;20048;-78
2022/08/26 02:07:32;;;;;;;0.30;0.30;;;19.30;99.90;;;;;;5051977;28;20122;-80
2022/08/26 02:09:58;;;;;;;0.30;0.30;;;19.40;99.90;;;;;;5074126;28;20051;-79
2022/08/26 02:12:24;;;;;;;0.30;0.30;;;19.40;99.90;;;;;;5054828;28;20047;-80
2022/08/26 02:14:54;;;;;;;0.38;0.38;;;19.40;99.90;;;;;;5090422;28;20411;-80
2022/08/26 02:17:24;;;;;;;0.38;0.38;;;19.50;99.90;;;;;;5069344;28;20047;-80
2022/08/26 02:19:51;;;;;;;0.40;0.40;;;19.50;99.90;;;;;;5055646;28;20094;-80
2022/08/26 02:22:19;;;;;;;0.30;0.30;;;19.60;99.90;;;;;;5054575;28;21053;-80
2022/08/26 02:24:55;;;;;;;0.30;0.30;;;19.60;99.90;;;;;;5070530;28;20116;-79
2022/08/26 02:27:28;;;;;;;0.40;0.40;;;19.70;99.90;;;;;;5069486;28;20047;-80
2022/08/26 02:29:59;;;;;;;0.57;0.37;;;19.70;99.90;;;;;;5070895;28;20047;-81
2022/08/26 02:32:25;;;;;;;0.30;0.30;;;19.70;99.90;;;;;;5070233;28;20047;-80
2022/08/26 02:34:50;;;;;;;0.30;0.30;;;19.80;99.90;;;;;;5069264;28;20507;-80
2022/08/26 02:37:16;;;;;;;0.30;0.30;;;19.90;99.90;;;;;;5069195;28;20058;-80
2022/08/26 02:39:45;;;;;;;0.30;0.30;;;19.90;99.90;;;;;;5071938;28;20115;-80
2022/08/26 02:42:11;;;;;;;0.50;0.50;;;19.90;99.90;;;;;;5068634;28;20054;-80
2022/08/26 02:44:37;;;;;;;0.30;0.30;;;19.90;99.90;;;;;;5070868;28;20381;-80
2022/08/26 02:47:02;;;;;;;0.30;0.30;;;20.00;99.90;;;;;;5069205;28;20644;-80
2022/08/26 02:49:29;;;;;;;0.30;0.30;;;20.00;99.90;;;;;;5069056;28;20048;-80
2022/08/26 02:51:55;;;;;;;0.30;0.30;;;20.10;99.90;;;;;;5069821;28;20058;-79
2022/08/26 02:54:21;;;;;;;0.30;0.30;;;20.10;99.90;;;;;;5066074;28;20566;-79
2022/08/26 02:56:47;;;;;;;0.30;0.30;;;20.10;99.90;;;;;;5070453;28;20051;-80
2022/08/26 02:59:13;;;;;;;0.30;0.30;;;20.20;99.90;;;;;;5070439;28;20142;-80
2022/08/26 03:01:39;;;;;;;0.30;0.30;;;20.10;99.90;;;;;;5069214;28;20109;-80
2022/08/26 03:04:09;;;;;;;0.30;0.30;;;20.20;99.90;;;;;;5070215;28;20044;-80
2022/08/26 03:06:35;;;;;;;0.30;0.30;;;20.20;99.90;;;;;;5068440;28;20512;-79
2022/08/26 03:09:00;;;;;;;0.40;0.40;;;20.10;99.90;;;;;;5051755;28;20043;-80
2022/08/26 03:11:26;;;;;;;0.30;0.30;;;20.20;99.90;;;;;;5068886;28;20046;-81
2022/08/26 03:13:52;;;;;;;0.30;0.30;;;20.30;99.90;;;;;;5070073;28;20137;-80
2022/08/26 03:16:19;;;;;;;0.38;0.38;;;20.30;99.90;;;;;;5068558;28;20116;-85
2022/08/26 03:18:45;;;;;;;0.30;0.30;;;20.30;99.90;;;;;;5070171;28;20666;-80
2022/08/26 03:21:14;;;;;;;0.30;0.30;;;20.40;99.90;;;;;;5054168;28;20069;-80
2022/08/26 03:23:42;;;;;;;0.50;0.50;;;20.30;99.90;;;;;;5068653;28;20058;-79
2022/08/26 03:26:09;;;;;;;0.30;0.30;;;20.30;99.90;;;;;;5070474;28;20159;-80
2022/08/26 03:30:38;;;;;;;0.30;0.30;;;20.40;99.90;;;;;;5064714;28;20059;-80
2022/08/26 03:31:21;;;;;;;0.30;0.30;;;20.40;99.90;;;;;;5066548;28;20046;-81
2022/08/26 03:33:47;;;;;;;0.30;0.30;;;20.30;99.90;;;;;;5070051;28;20097;-80
2022/08/26 03:36:13;;;;;;;0.30;0.30;;;20.30;99.90;;;;;;5070741;28;20248;-80
2022/08/26 03:38:39;;;;;;;0.30;0.30;;;20.30;99.90;;;;;;5068248;28;20121;-80
2022/08/26 03:41:04;;;;;;;0.30;0.30;;;20.30;99.90;;;;;;5068904;28;20059;-80
2022/08/26 03:43:30;;;;;;;0.30;0.30;;;20.30;99.90;;;;;;5068785;28;20048;-79
2022/08/26 03:45:56;;;;;;;0.30;0.30;;;20.30;99.90;;;;;;5069871;28;20052;-79
2022/08/26 03:48:21;;;;;;;0.40;0.40;;;20.30;99.90;;;;;;5068979;28;20079;-80
2022/08/26 03:50:47;;;;;;;0.30;0.30;;;20.30;99.90;;;;;;5071247;28;20053;-80
2022/08/26 03:53:13;;;;;;;0.30;0.30;;;20.30;99.90;;;;;;5054480;28;20050;-80
2022/08/26 03:55:39;;;;;;;0.30;0.30;;;20.30;99.90;;;;;;5069502;28;20059;-79
2022/08/26 03:58:05;;;;;;;0.30;0.30;;;20.30;99.90;;;;;;5071178;28;20042;-79
2022/08/26 04:00:30;;;;;;;0.30;0.30;;;20.30;99.90;;;;;;5057385;28;20044;-77
2022/08/26 04:02:56;;;;;;;0.50;0.50;;;20.30;99.90;;;;;;5091444;28;20055;-78
2022/08/26 04:05:22;;;;;;;0.30;0.30;;;20.30;99.90;;;;;;5073086;28;20085;-81
2022/08/26 04:07:48;;;;;;;0.40;0.40;;;20.30;99.90;;;;;;5058011;28;20050;-80
2022/08/26 04:10:16;;;;;;;0.30;0.30;;;20.30;99.90;;;;;;5073442;28;20134;-79
2022/08/26 04:12:43;;;;;;;0.30;0.30;;;20.40;99.90;;;;;;5072525;28;20056;-80
2022/08/26 04:15:13;;;;;;;0.30;0.30;;;20.40;99.90;;;;;;5073900;28;20105;-80
2022/08/26 04:17:39;;;;;;;0.30;0.30;;;20.30;99.90;;;;;;5089957;28;20191;-79
2022/08/26 04:20:06;;;;;;;0.40;0.40;;;20.20;99.90;;;;;;5073362;28;20051;-80
2022/08/26 04:22:32;;;;;;;0.30;0.30;;;20.30;99.90;;;;;;5073949;28;20135;-80
2022/08/26 04:24:58;;;;;;;0.30;0.30;;;20.20;99.90;;;;;;5091159;28;20123;-81
2022/08/26 04:27:24;;;;;;;0.30;0.30;;;20.30;99.90;;;;;;5073936;28;20391;-80
2022/08/26 04:29:50;;;;;;;0.30;0.30;;;20.30;99.90;;;;;;5071976;28;20066;-79
2022/08/26 04:32:16;;;;;;;0.40;0.40;;;20.20;99.90;;;;;;5075330;28;20133;-80
2022/08/26 04:34:42;;;;;;;0.30;0.30;;;20.30;99.90;;;;;;5073263;28;20560;-79
2022/08/26 04:37:08;;;;;;;0.30;0.30;;;20.30;99.90;;;;;;5056042;28;20035;-80
2022/08/26 04:39:33;;;;;;;0.30;0.30;;;20.30;99.90;;;;;;5073718;28;20082;-80
2022/08/26 04:42:00;;;;;;;0.30;0.30;;;20.30;99.90;;;;;;5057536;28;20130;-80
2022/08/26 04:44:28;;;;;;;0.30;0.30;;;20.40;99.90;;;;;;5073146;28;20056;-80
2022/08/26 04:46:54;;;;;;;0.30;0.30;;;20.40;99.90;;;;;;5090057;28;20709;-80
2022/08/26 04:49:20;;;;;;;0.40;0.40;;;20.40;99.90;;;;;;5069105;28;20042;-80
2022/08/26 04:51:47;;;;;;;0.30;0.30;;;20.40;99.90;;;;;;5092299;28;20043;-80
2022/08/26 04:54:14;;;;;;;0.30;0.30;;;20.40;99.90;;;;;;5074038;28;20047;-80
2022/08/26 04:56:42;;;;;;;0.30;0.30;;;20.40;99.90;;;;;;5073354;28;20051;-80
2022/08/26 04:59:14;;;;;;;0.30;0.30;;;20.40;99.90;;;;;;5072621;28;20556;-81
2022/08/26 05:01:50;;;;;;;0.30;0.30;;;20.50;99.90;;;;;;5070463;28;20055;-79
2022/08/26 05:04:17;;;;;;;0.30;0.30;;;20.50;99.90;;;;;;5091130;28;21105;-80
2022/08/26 05:06:42;;;;;;;0.30;0.30;;;20.50;99.90;;;;;;5073018;28;20066;-80
2022/08/26 05:09:08;;;;;;;0.30;0.30;;;20.60;99.90;;;;;;5069955;28;20047;-80
2022/08/26 05:11:34;;;;;;;0.40;0.40;;;20.70;99.90;;;;;;5071931;28;20051;-81
2022/08/26 05:14:01;;;;;;;0.30;0.30;;;20.70;99.90;;;;;;5072340;28;20054;-79
2022/08/26 05:16:27;;;;;;;0.30;0.30;;;20.70;99.90;;;;;;5054532;28;20142;-80
2022/08/26 05:18:53;;;;;;;0.30;0.30;;;20.70;99.90;;;;;;5073505;28;20055;-80
2022/08/26 05:21:25;;;;;;;0.30;0.30;;;20.70;99.90;;;;;;5090173;28;20093;-79
2022/08/26 05:23:53;;;;;;;0.30;0.30;;;20.80;99.90;;;;;;5073039;28;20051;-80
2022/08/26 05:26:20;;;;;;;0.30;0.30;;;20.70;99.90;;;;;;5070552;28;20051;-80
2022/08/26 05:28:46;;;;;;;0.30;0.30;;;20.80;99.90;;;;;;5073144;28;21021;-78
2022/08/26 05:31:18;;;;;;;0.40;0.40;;;20.70;99.90;;;;;;5089754;28;20059;-80
2022/08/26 05:33:45;;;;;;;0.30;0.30;;;20.80;99.90;;;;;;5072444;28;20399;-80
2022/08/26 05:36:16;;;;;;;0.30;0.30;;;20.90;99.90;;;;;;5089759;28;20470;-80
2022/08/26 05:38:42;;;;;;;0.30;0.30;;;20.90;99.90;;;;;;5070519;28;20047;-81
2022/08/26 05:41:20;;;;;;;0.30;0.30;;;20.90;99.90;;;;;;5071418;28;20629;-80
2022/08/26 05:43:46;;;;;;;0.30;0.30;;;20.90;99.90;;;;;;5054495;28;20079;-81
2022/08/26 05:46:12;;;;;;;0.40;0.40;;;20.90;99.90;;;;;;5072641;28;20516;-80
2022/08/26 05:48:39;;;;;;;0.30;0.30;;;21.00;99.90;;;;;;5076735;28;20543;-79
2022/08/26 05:51:07;;;;;;;0.30;0.30;;;21.00;99.90;;;;;;5088740;28;20074;-79
2022/08/26 05:53:33;;;;;;;0.40;0.40;;;21.00;99.90;;;;;;5072230;28;20774;-80
2022/08/26 05:55:59;;;;;;;0.30;0.30;;;21.10;99.90;;;;;;5073467;28;20039;-80
2022/08/26 05:58:26;;;;;;;0.30;0.30;;;21.10;99.90;;;;;;5090885;28;20048;-79
2022/08/26 06:01:16;;;;;;;1.23;0.40;;;21.20;99.90;;;;;;5070512;28;20043;-81
2022/08/26 06:03:45;;;;;;;0.30;0.30;;;21.20;99.90;;;;;;5070988;28;20083;-79
2022/08/26 06:06:21;;;;;;;0.30;0.30;;;21.30;99.90;;;;;;5071039;28;20047;-79
2022/08/26 06:08:47;;;;;;;0.30;0.30;;;21.40;99.90;;;;;;5071737;28;20039;-79
2022/08/26 06:11:16;;;;;;;0.30;0.30;;;21.30;99.90;;;;;;5071685;28;20096;-80
2022/08/26 06:13:46;;;;;;;0.30;0.30;;;21.40;99.90;;;;;;5091153;28;20079;-80
2022/08/26 06:16:16;;;;;;;0.30;0.30;;;21.30;99.90;;;;;;5071569;28;20051;-78
2022/08/26 06:18:44;;;;;;;0.30;0.30;;;21.40;99.90;;;;;;5070624;28;20043;-80
2022/08/26 06:21:24;;;;;;;0.40;0.40;;;21.40;99.90;;;;;;5070708;28;20075;-80
2022/08/26 06:26:38;;;;;;;0.30;0.30;;;21.50;99.90;;;;;;5069850;28;20380;-78
2022/08/26 06:29:05;;;;;;;0.30;0.30;;;21.40;99.90;;;;;;5056266;28;20059;-79
2022/08/26 06:31:35;;;;;;;0.40;0.40;;;21.40;99.90;;;;;;5068369;28;20504;-80
2022/08/26 06:34:02;;;;;;;0.30;0.30;;;21.50;99.90;;;;;;5089937;28;20365;-79
2022/08/26 06:36:29;;;;;;;0.30;0.30;;;21.60;99.90;;;;;;5054428;28;20062;-80
2022/08/26 06:38:59;;;;;;;0.30;0.30;;;21.50;99.90;;;;;;5067588;28;20066;-79
2022/08/26 06:41:25;;;;;;;0.40;0.40;;;21.50;99.90;;;;;;5055152;28;20675;-80
2022/08/26 06:43:51;;;;;;;0.30;0.30;;;21.70;99.90;;;;;;5072127;28;20052;-80
2022/08/26 06:46:18;;;;;;;0.30;0.30;;;21.80;99.90;;;;;;5071338;28;20039;-79
2022/08/26 06:48:45;;;;;;;0.30;0.30;;;21.70;99.90;;;;;;5069093;28;20052;-81
2022/08/26 06:51:13;;;;;;;0.30;0.30;;;21.80;99.90;;;;;;5071422;28;20118;-79
2022/08/26 06:53:41;;;;;;;0.30;0.30;;;21.80;99.90;;;;;;5085392;28;20043;-78
2022/08/26 06:56:09;;;;;;;0.30;0.30;;;21.80;99.90;;;;;;5069878;28;20079;-80
2022/08/26 06:58:36;;;;;;;0.30;0.30;;;21.80;99.90;;;;;;5069261;28;20388;-77
2022/08/26 07:01:03;;;;;;;0.30;0.30;;;21.80;99.90;;;;;;5088958;28;20170;-81
2022/08/26 07:03:28;;;;;;;0.30;0.30;;;21.80;99.90;;;;;;5069222;28;20374;-79
2022/08/26 07:06:02;;;;;;;0.30;0.30;;;21.90;99.90;;;;;;5070782;28;20043;-78
2022/08/26 07:08:28;;;;;;;0.30;0.30;;;22.00;99.90;;;;;;5075051;28;20043;-80
2022/08/26 07:10:54;;;;;;;0.30;0.30;;;22.10;99.90;;;;;;5068598;28;20055;-79
2022/08/26 07:13:22;;;;;;;0.35;0.35;;;22.20;99.90;;;;;;5087256;28;20067;-79
2022/08/26 07:15:48;;;;;;;0.30;0.30;;;22.00;99.90;;;;;;5070128;28;20104;-81
2022/08/26 07:18:15;;;;;;;0.30;0.30;;;22.20;99.90;;;;;;5069031;28;22584;-82
2022/08/26 07:20:42;;;;;;;0.30;0.30;;;22.20;99.90;;;;;;5069900;28;20078;-81
2022/08/26 07:23:09;;;;;;;0.30;0.30;;;22.40;99.90;;;;;;5068988;28;20043;-79
2022/08/26 07:25:39;;;;;;;0.30;0.30;;;22.50;99.90;;;;;;5086236;28;20544;-78
2022/08/26 07:28:06;;;;;;;0.30;0.30;;;22.60;99.90;;;;;;5089658;28;20093;-80
2022/08/26 07:30:32;;;;;;;0.30;0.30;;;22.60;99.90;;;;;;5068872;28;20051;-80
2022/08/26 07:32:58;;;;;;;0.30;0.30;;;22.60;99.90;;;;;;5072615;28;20054;-79
2022/08/26 07:35:25;;;;;;;0.30;0.30;;;22.70;99.90;;;;;;5073430;28;20047;-79
2022/08/26 07:37:51;;;;;;;0.30;0.30;;;22.70;99.90;;;;;;5074742;28;20054;-80
2022/08/26 07:40:17;;;;;;;0.20;0.20;;;22.70;99.90;;;;;;5074171;28;20146;-79
2022/08/26 07:42:43;;;;;;;0.30;0.30;;;22.70;99.90;;;;;;5073833;28;20062;-79
2022/08/26 07:45:09;;;;;;;0.30;0.30;;;22.70;99.90;;;;;;5074327;28;20051;-81
2022/08/26 07:47:35;;;;;;;0.30;0.30;;;22.80;99.90;;;;;;5071415;28;20072;-79
2022/08/26 07:50:01;;;;;;;0.30;0.30;;;22.90;99.90;;;;;;5074506;28;20039;-81
2022/08/26 07:52:28;;;;;;;0.28;0.28;;;23.00;99.90;;;;;;5072189;28;20039;-79
2022/08/26 07:55:00;;;;;;;0.30;0.30;;;23.10;99.90;;;;;;5071214;28;20039;-81
2022/08/26 07:57:27;;;;;;;0.30;0.30;;;23.10;99.90;;;;;;5072908;28;20468;-82
2022/08/26 07:59:53;;;;;;;0.25;0.25;;;23.30;99.90;;;;;;5080715;28;20702;-79
2022/08/26 08:02:19;;;;;;;0.30;0.30;;;23.50;99.90;;;;;;5092256;28;20065;-78
2022/08/26 08:04:45;;;;;;;0.30;0.30;;;23.50;99.90;;;;;;5047442;28;20051;-79
2022/08/26 08:07:10;;;;;;;0.30;0.30;;;23.60;99.90;;;;;;5063324;28;20059;-81
2022/08/26 08:09:36;;;;;;;0.30;0.30;;;23.90;99.90;;;;;;5061591;28;20134;-80
2022/08/26 08:12:03;;;;;;;0.30;0.30;;;23.90;99.90;;;;;;5064529;28;20241;-79
2022/08/26 08:14:29;;;;;;;0.30;0.30;;;24.00;99.90;;;;;;5070581;28;20048;-79
2022/08/26 08:16:55;;;;;;;0.30;0.30;;;24.10;99.90;;;;;;5071206;28;20040;-80
2022/08/26 08:19:23;;;;;;;0.30;0.30;;;24.50;99.90;;;;;;5070579;28;20059;-79
2022/08/26 08:21:48;;;;;;;0.30;0.30;;;24.60;99.90;;;;;;5089814;28;21195;-78
2022/08/26 08:24:14;;;;;;;0.30;0.30;;;24.70;99.90;;;;;;5087955;28;20039;-80
2022/08/26 08:26:40;;;;;;;0.30;0.30;;;24.50;99.90;;;;;;5064641;28;20064;-85
2022/08/26 08:29:07;;;;;;;0.30;0.30;;;24.50;99.90;;;;;;5059617;28;20054;-81
2022/08/26 08:31:34;;;;;;;0.30;0.30;;;24.60;99.90;;;;;;5070946;28;20059;-81
2022/08/26 08:34:00;;;;;;;0.20;0.20;;;24.70;99.90;;;;;;5070868;28;20201;-86
2022/08/26 08:36:25;;;;;;;0.20;0.20;;;24.60;99.90;;;;;;5073194;28;20503;-81
2022/08/26 08:38:51;;;;;;;0.30;0.30;;;24.60;99.90;;;;;;5085552;28;20043;-79
2022/08/26 08:41:36;;;;;;;0.30;0.30;;;24.60;99.90;;;;;;5057899;28;20115;-81
2022/08/26 08:44:02;;;;;;;0.30;0.30;;;24.60;99.90;;;;;;5072714;28;20497;-80
2022/08/26 08:46:30;;;;;;;0.20;0.20;;;24.70;99.90;;;;;;5056213;28;20039;-78
2022/08/26 08:48:58;;;;;;;0.25;0.25;;;24.90;99.90;;;;;;5071526;28;20142;-82
2022/08/26 08:51:55;;;;;;;0.30;0.30;;;24.70;99.90;;;;;;5073225;28;20645;-81
2022/08/26 08:54:22;;;;;;;0.30;0.30;;;24.60;99.90;;;;;;5070574;28;20043;-80
2022/08/26 08:56:57;;;;;;;0.30;0.30;;;24.60;99.90;;;;;;5090358;28;20138;-80
2022/08/26 08:59:26;;;;;;;0.25;0.25;;;24.60;99.90;;;;;;5089170;28;20974;-81
2022/08/26 09:02:06;;;;;;;0.20;0.20;;;24.60;99.90;;;;;;5071703;28;20112;-79
2022/08/26 09:04:53;;;;;;;0.20;0.20;;;24.80;99.90;;;;;;5085487;28;20108;-81
2022/08/26 09:07:24;;;;;;;0.20;0.20;;;24.90;99.90;;;;;;5059871;28;20590;-80
2022/08/26 09:09:59;;;;;;;0.20;0.20;;;24.80;99.90;;;;;;5090211;28;20051;-82
2022/08/26 09:12:30;;;;;;;0.20;0.20;;;24.60;99.90;;;;;;5074065;28;20358;-80
2022/08/26 09:15:15;;;;;;;0.30;0.30;;;24.70;99.90;;;;;;5074448;28;20047;-78
2022/08/26 09:18:17;;;;;;;0.20;0.20;;;24.60;99.90;;;;;;5090177;28;20051;-82
2022/08/26 09:21:05;;;;;;;0.30;0.30;;;24.50;99.90;;;;;;5074533;28;20082;-81
2022/08/26 09:23:34;;;;;;;0.30;0.30;;;24.40;99.90;;;;;;5071853;28;20123;-78
2022/08/26 09:26:11;;;;;;;0.30;0.30;;;24.20;99.90;;;;;;5071620;28;20133;-79
2022/08/26 09:28:41;;;;;;;0.30;0.30;;;24.30;99.90;;;;;;5089891;28;20153;-82
2022/08/26 09:31:29;;;;;;;0.30;0.30;;;24.20;99.90;;;;;;5071412;28;20055;-80
2022/08/26 09:34:13;;;;;;;0.30;0.30;;;24.20;99.90;;;;;;5072174;28;20127;-80
2022/08/26 09:36:48;;;;;;;0.30;0.30;;;24.30;99.90;;;;;;5069432;28;20051;-81
2022/08/26 09:39:26;;;;;;;0.30;0.30;;;24.20;99.90;;;;;;5089500;28;20100;-81
2022/08/26 09:42:21;;;;;;;0.30;0.30;;;24.30;99.90;;;;;;5071226;28;20052;-80
2022/08/26 09:45:03;;;;;;;0.30;0.30;;;24.20;99.90;;;;;;5071305;28;20055;-81
2022/08/26 09:47:35;;;;;;;0.30;0.30;;;24.30;99.90;;;;;;5088730;28;20035;-79
2022/08/26 09:50:05;;;;;;;0.30;0.30;;;24.20;99.90;;;;;;5071578;28;20047;-80
2022/08/26 09:52:31;;;;;;;0.30;0.30;;;24.20;99.90;;;;;;5070372;28;20055;-81
2022/08/26 09:55:13;;;;;;;0.30;0.30;;;24.30;99.90;;;;;;5053059;28;20508;-80
2022/08/26 09:57:52;;;;;;;0.30;0.30;;;24.30;99.90;;;;;;5068439;28;20075;-82
2022/08/26 10:00:32;;;;;;;0.30;0.30;;;24.40;99.90;;;;;;5071821;28;20052;-81
2022/08/26 10:03:00;;;;;;;0.30;0.30;;;24.40;99.90;;;;;;5070032;28;20703;-82
2022/08/26 10:05:48;;;;;;;0.30;0.30;;;24.40;99.90;;;;;;5072161;28;20511;-80
2022/08/26 10:08:21;;;;;;;0.30;0.30;;;24.10;99.90;;;;;;5055618;28;20827;-79
2022/08/26 10:10:48;;;;;;;0.30;0.30;;;23.90;99.90;;;;;;5070259;28;20529;-81
2022/08/26 10:13:34;;;;;;;0.30;0.30;;;23.80;99.90;;;;;;5066704;28;20086;-78
2022/08/26 10:16:15;;;;;;;0.30;0.30;;;23.60;99.90;;;;;;5070178;28;20051;-80
2022/08/26 10:19:14;;;;;;;0.30;0.30;;;23.40;99.90;;;;;;5063643;28;20052;-79
2022/08/26 10:22:09;;;;;;;0.20;0.20;;;23.20;99.90;;;;;;5053407;28;20108;-80
2022/08/26 10:24:46;;;;;;;0.30;0.30;;;23.30;99.90;;;;;;5085504;28;20043;-81
2022/08/26 10:27:50;;;;;;;0.30;0.30;;;23.30;99.90;;;;;;5070837;28;20050;-80
2022/08/26 10:30:18;;;;;;;;;;;23.40;99.90;;;;;;5073026;28;20169;-80
2022/08/26 10:32:49;;;;;;;0.20;0.20;;;23.30;99.90;;;;;;5088524;28;20259;-80
2022/08/26 10:35:18;;;;;;;0.25;0.25;;;23.30;99.90;;;;;;5069994;28;20048;-79
2022/08/26 10:37:52;;;;;;;0.30;0.30;;;23.20;99.90;;;;;;5086953;28;20494;-79
2022/08/26 10:40:25;;;;;;;0.30;0.30;;;23.10;99.90;;;;;;5069681;28;20051;-81
2022/08/26 10:43:04;;;;;;;0.20;0.20;;;23.20;99.90;;;;;;5070776;28;20047;-81
2022/08/26 10:45:36;;;;;;;0.30;0.30;;;23.30;99.90;;;;;;5086118;28;20051;-80
2022/08/26 10:48:06;;;;;;;0.30;0.30;;;23.20;99.90;;;;;;5071820;28;20086;-81
2022/08/26 10:50:39;;;;;;;0.30;0.30;;;23.30;99.90;;;;;;5067845;28;20546;-80
2022/08/26 10:53:23;;;;;;;0.20;0.20;;;23.20;99.90;;;;;;5071617;28;20049;-79
2022/08/26 10:55:48;;;;;;;0.30;0.30;;;23.20;99.90;;;;;;5069608;28;20039;-80
2022/08/26 10:58:30;;;;;;;0.30;0.30;;;23.20;99.90;;;;;;5087526;28;20055;-81
2022/08/26 11:04:07;;;;;;;0.30;0.30;;;23.20;99.90;;;;;;5069310;28;20087;-80
2022/08/26 11:06:33;;;;;;;0.20;0.20;;;23.30;99.90;;;;;;5069195;28;20051;-80
2022/08/26 11:09:09;;;;;;;0.30;0.30;;;23.30;99.90;;;;;;5055386;28;20042;-81
2022/08/26 11:11:41;;;;;;;0.30;0.30;;;23.20;99.90;;;;;;5074061;28;20118;-79
2022/08/26 11:14:29;;;;;;;0.30;0.30;;;23.20;99.90;;;;;;5075223;28;20485;-80
2022/08/26 11:16:56;;;;;;;0.30;0.30;;;23.30;99.90;;;;;;5061098;28;20047;-81
2022/08/26 11:19:40;;;;;;;0.30;0.30;;;23.20;99.90;;;;;;5074085;28;20769;-79
2022/08/26 11:22:37;;;;;;;0.30;0.30;;;23.10;99.90;;;;;;5091097;28;20086;-81
2022/08/26 11:25:14;;;;;;;0.30;0.30;;;23.20;99.90;;;;;;5090969;28;20143;-81
2022/08/26 11:27:40;;;;;;;0.30;0.30;;;23.20;99.90;;;;;;5090554;28;20395;-81
2022/08/26 11:30:08;;;;;;;0.30;0.30;;;23.20;99.90;;;;;;5074866;28;20047;-81
2022/08/26 11:32:33;;;;;;;0.30;0.30;;;23.10;99.90;;;;;;5071857;28;20045;-77
2022/08/26 11:35:03;;;;;;;0.30;0.30;;;23.30;99.90;;;;;;5090679;28;20865;-80
2022/08/26 11:37:56;;;;;;;0.30;0.30;;;23.10;99.90;;;;;;5089707;28;20047;-80
2022/08/26 11:40:27;;;;;;;0.30;0.30;;;23.30;99.90;;;;;;5072499;28;20481;-80
2022/08/26 11:42:56;;;;;;;0.30;0.30;;;23.20;99.90;;;;;;5070565;28;20035;-80
2022/08/26 11:45:44;;;;;;;0.30;0.30;;;23.20;99.90;;;;;;5072663;28;20891;-80
2022/08/26 11:48:14;;;;;;;0.30;0.30;;;23.10;99.90;;;;;;5079536;28;20052;-81
2022/08/26 11:50:50;;;;;;;0.30;0.30;;;23.10;99.90;;;;;;5072718;28;20051;-80
2022/08/26 11:53:17;;;;;;;0.30;0.30;;;23.10;99.90;;;;;;5072054;28;20079;-81
2022/08/26 11:55:43;;;;;;;0.30;0.30;;;23.20;99.90;;;;;;5089329;28;20052;-80
2022/08/26 11:58:11;;;;;;;0.30;0.30;;;23.10;99.90;;;;;;5089481;28;20098;-81
2022/08/26 12:00:43;;;;;;;0.30;0.30;;;23.10;99.90;;;;;;5071137;28;20047;-79
2022/08/26 12:03:16;;;;;;;0.30;0.30;;;23.20;99.90;;;;;;5073421;28;20039;-79
2022/08/26 12:05:45;;;;;;;0.30;0.30;;;23.30;99.90;;;;;;5071022;28;20058;-78
2022/08/26 12:08:23;;;;;;;0.30;0.30;;;23.10;99.90;;;;;;5072204;28;20093;-79
2022/08/26 12:11:05;;;;;;;0.30;0.30;;;23.00;99.90;;;;;;5068693;28;20518;-81
2022/08/26 12:13:32;;;;;;;0.30;0.30;;;23.10;99.90;;;;;;5089797;28;20051;-80
2022/08/26 12:15:59;;;;;;;0.30;0.30;;;23.00;99.90;;;;;;5073679;28;20043;-78
2022/08/26 12:18:31;;;;;;;0.30;0.30;;;23.20;99.90;;;;;;5072487;28;20073;-83
2022/08/26 12:20:59;;;;;;;0.30;0.30;;;23.20;99.90;;;;;;5073623;28;20055;-81
2022/08/26 12:23:34;;;;;;;0.30;0.30;;;23.30;99.90;;;;;;5073022;28;20808;-81
2022/08/26 12:26:19;;;;;;;0.30;0.30;;;23.40;99.90;;;;;;5073433;28;20743;-80
2022/08/26 12:28:51;;;;;;;0.30;0.30;;;23.40;99.90;;;;;;5070159;28;20074;-80
2022/08/26 12:31:25;;;;;;;0.30;0.30;;;23.40;99.90;;;;;;5072287;28;20055;-82
2022/08/26 12:33:53;;;;;;;0.30;0.30;;;23.40;99.90;;;;;;5070609;28;20059;-80
2022/08/26 12:36:41;;;;;;;0.30;0.30;;;23.30;99.90;;;;;;5072330;28;20056;-79
2022/08/26 12:39:13;;;;;;;0.30;0.30;;;23.10;99.90;;;;;;5069711;28;20056;-80
2022/08/26 12:41:52;;;;;;;0.30;0.30;;;23.00;99.90;;;;;;5072600;28;20120;-80
2022/08/26 12:45:00;;;;;;;0.30;0.30;;;22.80;99.90;;;;;;5070754;28;20066;-79
2022/08/26 12:47:40;;;;;;;0.30;0.30;;;22.90;99.90;;;;;;5008559;28;20199;-81
2022/08/26 12:50:28;;;;;;;0.30;0.30;;;22.80;99.90;;;;;;5082877;28;20061;-81
2022/08/26 12:53:09;;;;;;;0.30;0.30;;;22.70;99.90;;;;;;5091773;28;20058;-81
2022/08/26 12:55:37;;;;;;;0.30;0.30;;;22.70;99.90;;;;;;5090012;28;20134;-80
2022/08/26 12:58:36;;;;;;;0.30;0.30;;;22.80;99.90;;;;;;5090534;28;20096;-81
2022/08/26 13:01:07;;;;;;;0.40;0.40;;;22.80;99.90;;;;;;5089001;28;20645;-81
2022/08/26 13:03:33;;;;;;;0.30;0.30;;;22.80;99.90;;;;;;5071785;28;20048;-79
2022/08/26 13:06:10;;;;;;;0.30;0.30;;;22.90;99.90;;;;;;5073599;28;20047;-79
2022/08/26 13:08:40;;;;;;;0.30;0.30;;;22.90;99.90;;;;;;5070936;28;20051;-80
2022/08/26 13:11:20;;;;;;;0.30;0.30;;;22.90;99.90;;;;;;5054029;28;20498;-80